Time;durP1;ratioP1;P1;durP2;ratioP2;P2;SDS_P1;SDS_P2;PMS_P1;PMS_P2;Temp;Humidity;BMP_temperature;BMP_pressure;BME280_temperature;BME280_humidity;BME280_pressure;Samples;Min_cycle;Max_cycle;Signal;HPM_P1;HPM_P2
2021/01/11 00:00:48;;;;;;;18.03;16.17;;;;;19.70;101086.00;;;;2070953;28;20232;-49
2021/01/11 00:01:48;;;;;;;20.73;17.50;;;;;19.60;101084.00;;;;2071505;28;20215;-52
2021/01/11 00:02:49;;;;;;;20.40;18.30;;;;;19.50;101092.00;;;;2071391;28;20296;-50
2021/01/11 00:03:49;;;;;;;18.60;16.60;;;;;19.50;101085.00;;;;2070939;28;20651;-53
2021/01/11 00:04:50;;;;;;;18.57;16.67;;;;;19.70;101082.00;;;;2070448;28;20458;-49
2021/01/11 00:05:50;;;;;;;19.30;17.00;;;;;19.70;101075.00;;;;2071284;28;20209;-53
2021/01/11 00:06:50;;;;;;;21.40;17.47;;;;;19.60;101070.00;;;;2071218;28;20208;-52
2021/01/11 00:07:51;;;;;;;18.57;16.57;;;;;19.60;101078.00;;;;2071625;28;20217;-53
2021/01/11 00:08:51;;;;;;;19.00;16.90;;;;;19.70;101075.00;;;;2070570;28;20290;-53
2021/01/11 00:09:51;;;;;;;17.50;15.70;;;;;19.70;101077.00;;;;2071693;28;20220;-53
2021/01/11 00:10:52;;;;;;;17.40;15.60;;;;;19.70;101070.00;;;;2071512;28;20232;-53
2021/01/11 00:11:52;;;;;;;17.27;15.50;;;;;19.70;101067.00;;;;2071085;28;20311;-50
2021/01/11 00:12:52;;;;;;;16.90;15.10;;;;;19.70;101062.00;;;;2071699;28;20204;-51
2021/01/11 00:13:53;;;;;;;16.63;14.87;;;;;19.70;101067.00;;;;2071784;28;20570;-50
2021/01/11 00:14:53;;;;;;;16.90;15.20;;;;;19.70;101059.00;;;;2071086;28;20240;-50
2021/01/11 00:15:53;;;;;;;16.70;15.00;;;;;19.70;101065.00;;;;2071061;28;20247;-54
2021/01/11 00:16:54;;;;;;;16.10;14.40;;;;;19.60;101067.00;;;;2069970;28;20210;-53
2021/01/11 00:17:54;;;;;;;16.93;14.90;;;;;19.60;101072.00;;;;2071587;28;20284;-51
2021/01/11 00:18:54;;;;;;;16.50;14.83;;;;;19.60;101077.00;;;;2071596;28;20245;-52
2021/01/11 00:19:55;;;;;;;15.73;14.13;;;;;19.60;101081.00;;;;2070445;28;20220;-52
2021/01/11 00:20:55;;;;;;;16.20;14.60;;;;;19.60;101079.00;;;;2071648;28;20208;-53
2021/01/11 00:21:55;;;;;;;15.17;13.60;;;;;19.60;101076.00;;;;2071560;28;20291;-52
2021/01/11 00:22:56;;;;;;;15.03;13.43;;;;;19.60;101077.00;;;;2071548;28;20296;-53
2021/01/11 00:23:56;;;;;;;15.97;14.27;;;;;19.60;101078.00;;;;2071562;28;20641;-54
2021/01/11 00:24:56;;;;;;;15.13;13.63;;;;;19.60;101069.00;;;;2070734;28;20283;-50
2021/01/11 00:25:57;;;;;;;15.10;13.57;;;;;19.60;101078.00;;;;2071657;28;20212;-53
2021/01/11 00:26:57;;;;;;;15.37;13.80;;;;;19.60;101080.00;;;;2070561;28;20301;-53
2021/01/11 00:27:57;;;;;;;14.73;13.10;;;;;19.60;101069.00;;;;2071503;28;20322;-53
2021/01/11 00:28:58;;;;;;;14.80;13.40;;;;;19.60;101069.00;;;;2071554;28;20213;-52
2021/01/11 00:29:58;;;;;;;16.60;13.33;;;;;19.60;101070.00;;;;2071457;28;20217;-53
2021/01/11 00:30:58;;;;;;;14.20;12.70;;;;;19.60;101082.00;;;;2071481;28;20233;-52
2021/01/11 00:31:59;;;;;;;15.23;13.63;;;;;19.60;101078.00;;;;2071331;28;20801;-50
2021/01/11 00:32:59;;;;;;;14.77;13.20;;;;;19.60;101075.00;;;;2071459;28;20763;-53
2021/01/11 00:33:59;;;;;;;13.70;12.30;;;;;19.60;101072.00;;;;2071546;28;20549;-52
2021/01/11 00:35:00;;;;;;;15.60;14.03;;;;;19.50;101069.00;;;;2070475;28;20762;-52
2021/01/11 00:36:01;;;;;;;14.03;12.63;;;;;19.60;101081.00;;;;2071267;28;20219;-53
2021/01/11 00:37:01;;;;;;;14.00;12.60;;;;;19.50;101071.00;;;;2070965;28;20511;-51
2021/01/11 00:38:01;;;;;;;12.80;11.63;;;;;19.50;101069.00;;;;2071143;28;20262;-51
2021/01/11 00:39:02;;;;;;;14.60;13.17;;;;;19.50;101077.00;;;;2071135;28;20240;-52
2021/01/11 00:40:04;;;;;;;14.53;13.17;;;;;19.50;101075.00;;;;2071385;28;20618;-52
2021/01/11 00:41:05;;;;;;;13.52;12.13;;;;;19.50;101070.00;;;;2071510;28;20243;-53
2021/01/11 00:42:05;;;;;;;15.30;12.77;;;;;19.50;101076.00;;;;2071472;28;20308;-50
2021/01/11 00:43:05;;;;;;;13.73;12.33;;;;;19.50;101070.00;;;;2071297;28;20691;-52
2021/01/11 00:44:06;;;;;;;13.47;12.17;;;;;19.50;101066.00;;;;2071301;28;20249;-53
2021/01/11 00:45:07;;;;;;;14.33;12.83;;;;;19.50;101075.00;;;;2070305;28;20235;-51
2021/01/11 00:46:08;;;;;;;12.95;11.63;;;;;19.50;101079.00;;;;2070125;28;20554;-53
2021/01/11 00:47:08;;;;;;;12.73;11.43;;;;;19.50;101075.00;;;;2071001;28;20221;-53
2021/01/11 00:48:09;;;;;;;12.50;11.30;;;;;19.50;101070.00;;;;2071194;28;20216;-50
2021/01/11 00:49:10;;;;;;;13.87;12.40;;;;;19.50;101080.00;;;;2071278;28;20685;-53
2021/01/11 00:50:11;;;;;;;14.95;11.68;;;;;19.50;101073.00;;;;2071084;28;20613;-53
2021/01/11 00:51:11;;;;;;;12.10;10.87;;;;;19.50;101077.00;;;;2070881;28;20237;-50
2021/01/11 00:52:12;;;;;;;12.37;11.17;;;;;19.50;101079.00;;;;2070908;28;20459;-50
2021/01/11 00:53:12;;;;;;;12.70;11.40;;;;;19.50;101077.00;;;;2071057;28;20894;-51
2021/01/11 00:54:12;;;;;;;12.17;10.97;;;;;19.50;101073.00;;;;2071375;28;20244;-50
2021/01/11 00:55:13;;;;;;;11.87;10.77;;;;;19.50;101083.00;;;;2070039;28;20232;-50
2021/01/11 00:56:14;;;;;;;12.33;11.13;;;;;19.50;101085.00;;;;2071480;28;20593;-53
2021/01/11 00:57:14;;;;;;;12.23;11.03;;;;;19.50;101086.00;;;;2070991;28;20220;-52
2021/01/11 00:58:14;;;;;;;12.60;11.40;;;;;19.40;101086.00;;;;2071322;28;20215;-53
2021/01/11 00:59:15;;;;;;;11.90;10.70;;;;;19.40;101083.00;;;;2071128;28;20233;-53
2021/01/11 01:00:16;;;;;;;11.97;10.77;;;;;19.40;101079.00;;;;2071228;28;20327;-53
2021/01/11 01:01:16;;;;;;;13.68;11.40;;;;;19.40;101091.00;;;;2070850;28;20223;-53
2021/01/11 01:02:16;;;;;;;11.40;10.40;;;;;19.40;101081.00;;;;2071282;28;20286;-53
2021/01/11 01:03:17;;;;;;;12.37;11.17;;;;;19.40;101082.00;;;;2070866;28;20215;-53
2021/01/11 01:04:17;;;;;;;11.27;10.23;;;;;19.40;101080.00;;;;2071296;28;20226;-53
2021/01/11 01:05:18;;;;;;;12.47;11.20;;;;;19.40;101081.00;;;;2070354;28;20249;-52
2021/01/11 01:06:18;;;;;;;11.90;10.73;;;;;19.40;101088.00;;;;2071295;28;20306;-50
2021/01/11 01:07:18;;;;;;;12.93;11.23;;;;;19.40;101082.00;;;;2070428;28;20218;-57
2021/01/11 01:08:19;;;;;;;11.50;10.30;;;;;19.40;101094.00;;;;2071246;28;20323;-55
2021/01/11 01:09:19;;;;;;;11.97;10.77;;;;;19.40;101087.00;;;;2071325;28;20277;-54
2021/01/11 01:10:19;;;;;;;11.73;10.53;;;;;19.40;101088.00;;;;2067207;28;20217;-53
2021/01/11 01:11:20;;;;;;;11.67;9.80;;;;;19.40;101091.00;;;;2075182;28;20306;-53
2021/01/11 01:12:20;;;;;;;12.93;10.83;;;;;19.40;101092.00;;;;2078624;28;20241;-51
2021/01/11 01:13:20;;;;;;;12.10;11.00;;;;;19.30;101089.00;;;;2070876;28;20239;-52
2021/01/11 01:14:21;;;;;;;11.40;10.40;;;;;19.20;101078.00;;;;2071303;28;20308;-53
2021/01/11 01:15:21;;;;;;;11.90;10.20;;;;;19.30;101087.00;;;;2070539;28;20217;-53
2021/01/11 01:16:26;;;;;;;12.93;10.50;;;;;19.30;101085.00;;;;2071318;28;20802;-53
2021/01/11 01:17:26;;;;;;;11.15;9.43;;;;;19.30;101084.00;;;;2070809;28;20216;-53
2021/01/11 01:18:26;;;;;;;12.27;11.10;;;;;19.30;101075.00;;;;2071027;28;20218;-51
2021/01/11 01:19:27;;;;;;;10.90;9.60;;;;;19.30;101076.00;;;;2071132;28;20786;-53
2021/01/11 01:20:27;;;;;;;10.83;9.83;;;;;19.40;101067.00;;;;2069404;28;20658;-54
2021/01/11 01:21:27;;;;;;;11.20;9.90;;;;;19.40;101070.00;;;;2071014;28;20215;-53
2021/01/11 01:22:28;;;;;;;10.30;9.30;;;;;19.40;101075.00;;;;2070995;28;20211;-54
2021/01/11 01:23:28;;;;;;;11.30;10.10;;;;;19.40;101068.00;;;;2070985;28;20218;-54
2021/01/11 01:24:28;;;;;;;11.70;9.97;;;;;19.40;101070.00;;;;2070556;28;20218;-50
2021/01/11 01:25:29;;;;;;;11.80;10.50;;;;;19.30;101069.00;;;;2070486;28;20277;-50
2021/01/11 01:26:29;;;;;;;10.80;9.70;;;;;19.30;101069.00;;;;2070839;28;20211;-52
2021/01/11 01:27:30;;;;;;;13.07;9.70;;;;;19.30;101065.00;;;;2069434;28;20299;-53
2021/01/11 01:28:30;;;;;;;12.03;10.70;;;;;19.30;101074.00;;;;2070980;28;20216;-53
2021/01/11 01:29:30;;;;;;;10.67;9.60;;;;;19.30;101071.00;;;;2070936;28;20212;-53
2021/01/11 01:30:31;;;;;;;12.20;11.00;;;;;19.30;101075.00;;;;2070392;28;20308;-53
2021/01/11 01:31:31;;;;;;;12.57;9.90;;;;;19.30;101068.00;;;;2062063;28;20259;-52
2021/01/11 01:32:32;;;;;;;11.40;9.57;;;;;19.30;101072.00;;;;2070381;28;20219;-52
2021/01/11 01:33:32;;;;;;;16.60;9.97;;;;;19.30;101071.00;;;;2070203;28;20383;-53
2021/01/11 01:34:32;;;;;;;13.40;10.37;;;;;19.30;101065.00;;;;2070350;28;20916;-53
2021/01/11 01:35:32;;;;;;;10.90;9.80;;;;;19.30;101069.00;;;;2070886;28;20708;-51
2021/01/11 01:36:33;;;;;;;11.87;10.37;;;;;19.30;101074.00;;;;2070913;28;20677;-51
2021/01/11 01:37:33;;;;;;;10.73;9.63;;;;;19.30;101067.00;;;;2070677;28;20644;-51
2021/01/11 01:38:34;;;;;;;12.10;10.90;;;;;19.20;101073.00;;;;2070918;28;20262;-52
2021/01/11 01:39:34;;;;;;;11.63;9.93;;;;;19.20;101067.00;;;;2070998;28;20208;-53
2021/01/11 01:40:34;;;;;;;11.93;10.50;;;;;19.20;101070.00;;;;2070904;28;20215;-54
2021/01/11 01:41:35;;;;;;;11.53;10.43;;;;;19.20;101075.00;;;;2070917;28;20300;-53
2021/01/11 01:42:35;;;;;;;12.73;9.97;;;;;19.20;101078.00;;;;2071075;28;20210;-53
2021/01/11 01:43:35;;;;;;;11.00;9.90;;;;;19.20;101079.00;;;;2070958;28;20210;-51
2021/01/11 01:44:36;;;;;;;10.30;9.40;;;;;19.20;101080.00;;;;2070003;28;20208;-52
2021/01/11 01:45:36;;;;;;;9.70;8.80;;;;;19.20;101088.00;;;;2070214;28;20226;-53
2021/01/11 01:46:36;;;;;;;11.27;10.07;;;;;19.20;101076.00;;;;2070120;28;20792;-53
2021/01/11 01:47:37;;;;;;;10.47;9.40;;;;;19.10;101070.00;;;;2069669;28;20623;-53
2021/01/11 01:48:37;;;;;;;11.20;9.60;;;;;19.10;101081.00;;;;2070449;28;21098;-53
2021/01/11 01:49:37;;;;;;;10.50;9.50;;;;;19.10;101073.00;;;;2062102;28;20243;-54
2021/01/11 01:50:38;;;;;;;10.77;9.70;;;;;19.10;101074.00;;;;2070109;28;20298;-50
2021/01/11 01:51:39;;;;;;;11.07;9.98;;;;;19.10;101066.00;;;;2070816;28;20301;-53
2021/01/11 01:52:39;;;;;;;12.17;9.47;;;;;19.20;101063.00;;;;2070979;28;20218;-53
2021/01/11 01:53:40;;;;;;;10.77;9.77;;;;;19.00;101073.00;;;;2061919;28;20232;-53
2021/01/11 01:54:40;;;;;;;14.20;9.90;;;;;19.10;101078.00;;;;2061412;28;20228;-51
2021/01/11 01:55:40;;;;;;;12.83;10.00;;;;;19.10;101078.00;;;;2070653;28;20273;-53
2021/01/11 01:56:41;;;;;;;12.53;10.50;;;;;19.10;101075.00;;;;2070806;28;20267;-53
2021/01/11 01:57:41;;;;;;;10.40;9.40;;;;;19.10;101076.00;;;;2069835;28;21010;-52
2021/01/11 01:58:42;;;;;;;11.00;9.90;;;;;19.10;101069.00;;;;2070196;28;20736;-52
2021/01/11 01:59:45;;;;;;;10.10;9.10;;;;;19.00;101062.00;;;;2070203;28;20215;-51
2021/01/11 02:00:45;;;;;;;10.77;9.65;;;;;19.00;101067.00;;;;2060550;28;20244;-54
2021/01/11 02:01:45;;;;;;;10.80;9.80;;;;;19.00;101070.00;;;;2069823;28;20228;-53
2021/01/11 02:02:46;;;;;;;10.63;9.63;;;;;19.10;101071.00;;;;2070237;28;20223;-53
2021/01/11 02:03:48;;;;;;;10.33;9.37;;;;;19.00;101065.00;;;;2070527;28;20228;-54
2021/01/11 02:04:48;;;;;;;10.65;9.70;;;;;19.00;101064.00;;;;2069955;28;20235;-53
2021/01/11 02:05:49;;;;;;;9.97;9.07;;;;;19.00;101069.00;;;;2070695;28;20580;-50
2021/01/11 02:07:08;;;;;;;10.13;9.13;;;;;19.00;101066.00;;;;2070603;28;20215;-53
2021/01/11 02:08:22;;;;;;;10.20;9.20;;;;;19.00;101064.00;;;;2069714;28;20226;-53
2021/01/11 02:09:31;;;;;;;10.45;9.35;;;;;19.00;101063.00;;;;2070508;28;20220;-50
2021/01/11 02:11:08;;;;;;;10.25;9.25;;;;;19.00;101073.00;;;;2070647;28;20262;-53
2021/01/11 02:12:16;;;;;;;10.57;9.57;;;;;19.00;101079.00;;;;2061731;28;20362;-50
2021/01/11 02:13:17;;;;;;;10.15;9.15;;;;;18.90;101060.00;;;;2062115;28;20565;-52
2021/01/11 02:14:25;;;;;;;10.50;9.50;;;;;18.90;101067.00;;;;2061090;28;20235;-53
2021/01/11 02:15:41;;;;;;;9.85;8.93;;;;;18.90;101069.00;;;;2068855;28;20771;-59
2021/01/11 02:16:48;;;;;;;9.55;8.57;;;;;18.90;101071.00;;;;2061109;28;20304;-53
2021/01/11 02:17:55;;;;;;;10.70;9.73;;;;;18.90;101073.00;;;;2068392;28;20228;-50
2021/01/11 02:19:16;;;;;;;10.48;9.40;;;;;18.90;101077.00;;;;2069510;28;20215;-53
2021/01/11 02:20:33;;;;;;;10.10;9.20;;;;;18.90;101077.00;;;;2069367;28;20252;-50
2021/01/11 02:21:54;;;;;;;10.68;9.57;;;;;18.90;101074.00;;;;2066736;28;20727;-50
2021/01/11 02:23:22;;;;;;;10.13;9.23;;;;;18.90;101071.00;;;;2069532;28;20552;-54
2021/01/11 02:24:46;;;;;;;10.25;9.25;;;;;18.90;101069.00;;;;2063827;28;20289;-53
2021/01/11 02:25:50;;;;;;;9.88;8.98;;;;;18.90;101067.00;;;;2063133;28;20230;-52
2021/01/11 02:27:12;;;;;;;9.55;8.65;;;;;18.90;101072.00;;;;2061068;28;20852;-54
2021/01/11 02:28:49;;;;;;;10.45;9.52;;;;;18.90;101061.00;;;;2065789;28;20226;-53
2021/01/11 02:30:05;;;;;;;9.85;8.98;;;;;18.90;101072.00;;;;2055600;28;20246;-50
2021/01/11 02:31:05;;;;;;;9.90;8.90;;;;;18.90;101083.00;;;;2062229;28;20245;-53
2021/01/11 02:32:06;;;;;;;10.03;9.13;;;;;18.90;101069.00;;;;2063783;28;20581;-52
2021/01/11 02:33:07;;;;;;;11.27;10.17;;;;;18.90;101070.00;;;;2051874;28;20208;-52
2021/01/11 02:34:07;;;;;;;9.95;8.98;;;;;18.90;101066.00;;;;2044354;28;20217;-52
2021/01/11 02:35:09;;;;;;;10.60;9.67;;;;;18.90;101066.00;;;;2045310;28;20676;-53
2021/01/11 02:36:09;;;;;;;10.48;9.38;;;;;18.90;101067.00;;;;2045932;28;20253;-52
2021/01/11 02:37:09;;;;;;;10.97;9.87;;;;;18.80;101069.00;;;;2053799;28;20209;-50
2021/01/11 02:38:10;;;;;;;10.53;9.63;;;;;18.80;101076.00;;;;2053601;28;20620;-52
2021/01/11 02:39:10;;;;;;;9.80;9.00;;;;;18.80;101074.00;;;;2061813;28;20216;-53
2021/01/11 02:40:11;;;;;;;10.87;9.87;;;;;18.80;101073.00;;;;2061883;28;20211;-54
2021/01/11 02:41:11;;;;;;;11.23;10.13;;;;;18.80;101068.00;;;;2062557;28;20246;-54
2021/01/11 02:42:11;;;;;;;10.20;9.30;;;;;18.80;101063.00;;;;2062468;28;20219;-54
2021/01/11 02:43:12;;;;;;;10.37;9.47;;;;;18.80;101064.00;;;;2062219;28;20220;-50
2021/01/11 02:44:12;;;;;;;11.33;10.27;;;;;18.80;101064.00;;;;2062457;28;20219;-54
2021/01/11 02:45:13;;;;;;;10.07;9.17;;;;;18.80;101061.00;;;;2061667;28;20223;-53
2021/01/11 02:46:13;;;;;;;9.80;9.00;;;;;18.80;101060.00;;;;2062468;28;20211;-53
2021/01/11 02:47:14;;;;;;;10.43;9.43;;;;;18.80;101066.00;;;;2062454;28;20712;-53
2021/01/11 02:48:28;;;;;;;10.07;9.18;;;;;18.80;101074.00;;;;2061842;28;20580;-53
2021/01/11 02:49:34;;;;;;;10.57;9.68;;;;;18.80;101067.00;;;;2062379;28;20230;-50
2021/01/11 02:50:43;;;;;;;10.07;9.05;;;;;18.80;101067.00;;;;2050712;28;20581;-53
2021/01/11 02:52:16;;;;;;;10.15;9.23;;;;;18.80;101070.00;;;;2047392;28;20300;-53
2021/01/11 02:53:32;;;;;;;10.10;9.20;;;;;18.80;101064.00;;;;2053914;28;20304;-51
2021/01/11 02:54:39;;;;;;;9.52;8.48;;;;;18.80;101062.00;;;;2060565;28;20621;-51
2021/01/11 02:55:54;;;;;;;10.32;9.40;;;;;18.80;101062.00;;;;2059585;28;20227;-53
2021/01/11 02:56:55;;;;;;;9.65;8.85;;;;;18.70;101059.00;;;;2055061;28;20219;-51
2021/01/11 02:58:25;;;;;;;11.18;10.18;;;;;18.70;101061.00;;;;2060972;28;20289;-53
2021/01/11 02:59:45;;;;;;;9.88;9.07;;;;;18.70;101066.00;;;;2050451;28;20226;-52
2021/01/11 03:00:45;;;;;;;9.20;8.32;;;;;18.70;101070.00;;;;2051738;28;20559;-52
2021/01/11 03:01:53;;;;;;;10.20;9.20;;;;;18.70;101066.00;;;;2073936;28;20217;-54
2021/01/11 03:02:53;;;;;;;9.93;9.10;;;;;18.70;101067.00;;;;2061453;28;20225;-53
2021/01/11 03:03:53;;;;;;;9.67;8.87;;;;;18.80;101067.00;;;;2045453;28;20690;-53
2021/01/11 03:04:54;;;;;;;9.90;9.10;;;;;18.70;101061.00;;;;2039436;28;20221;-54
2021/01/11 03:05:54;;;;;;;10.23;9.40;;;;;18.70;101061.00;;;;2053998;28;20216;-53
2021/01/11 03:06:58;;;;;;;10.50;9.43;;;;;18.70;101059.00;;;;2070003;28;20238;-52
2021/01/11 03:07:59;;;;;;;10.95;9.95;;;;;18.70;101050.00;;;;2070657;28;20226;-52
2021/01/11 03:09:04;;;;;;;9.40;8.40;;;;;18.70;101044.00;;;;2070694;28;20640;-53
2021/01/11 03:10:05;;;;;;;10.23;9.32;;;;;18.70;101043.00;;;;2070454;28;20211;-53
2021/01/11 03:11:05;;;;;;;9.35;8.60;;;;;18.70;101043.00;;;;2070110;28;20206;-53
2021/01/11 03:12:06;;;;;;;9.47;8.67;;;;;18.70;101043.00;;;;2070394;28;20720;-53
2021/01/11 03:13:06;;;;;;;11.60;9.57;;;;;18.70;101049.00;;;;2070398;28;20679;-53
2021/01/11 03:14:06;;;;;;;10.10;9.23;;;;;18.70;101045.00;;;;2070268;28;20279;-53
2021/01/11 03:15:07;;;;;;;9.03;8.23;;;;;18.60;101039.00;;;;2069778;28;20230;-54
2021/01/11 03:16:08;;;;;;;9.77;8.77;;;;;18.60;101045.00;;;;2070248;28;20214;-54
2021/01/11 03:17:08;;;;;;;9.60;8.80;;;;;18.60;101043.00;;;;2069926;28;20225;-53
2021/01/11 03:18:08;;;;;;;8.90;8.20;;;;;18.70;101041.00;;;;2069673;28;20688;-50
2021/01/11 03:19:09;;;;;;;10.10;9.20;;;;;18.60;101046.00;;;;2070081;28;20223;-52
2021/01/11 03:20:10;;;;;;;9.17;8.27;;;;;18.70;101038.00;;;;2069814;28;20226;-52
2021/01/11 03:21:10;;;;;;;9.30;8.60;;;;;18.60;101041.00;;;;2070388;28;20235;-54
2021/01/11 03:22:11;;;;;;;9.33;8.50;;;;;18.60;101046.00;;;;2070212;28;20302;-53
2021/01/11 03:23:11;;;;;;;9.60;8.70;;;;;18.60;101042.00;;;;2070308;28;20684;-50
2021/01/11 03:24:15;;;;;;;9.70;8.90;;;;;18.60;101038.00;;;;2069605;28;20631;-50
2021/01/11 03:25:16;;;;;;;9.50;8.68;;;;;18.60;101028.00;;;;2069436;28;20219;-53
2021/01/11 03:26:23;;;;;;;9.43;8.63;;;;;18.60;101028.00;;;;2070289;28;20608;-54
2021/01/11 03:27:24;;;;;;;9.93;9.02;;;;;18.60;101028.00;;;;2070173;28;20219;-52
2021/01/11 03:28:24;;;;;;;9.77;8.93;;;;;18.60;101018.00;;;;2069849;28;20306;-53
2021/01/11 03:29:24;;;;;;;9.40;8.53;;;;;18.60;101018.00;;;;2070595;28;20260;-53
2021/01/11 03:30:25;;;;;;;8.97;8.27;;;;;18.60;101019.00;;;;2070686;28;20284;-53
2021/01/11 03:31:25;;;;;;;9.23;8.33;;;;;18.60;101015.00;;;;2070782;28;20698;-53
2021/01/11 03:32:25;;;;;;;9.87;9.00;;;;;18.60;101014.00;;;;2070430;28;20238;-51
2021/01/11 03:33:26;;;;;;;10.30;9.40;;;;;18.50;101017.00;;;;2070422;28;20215;-51
2021/01/11 03:34:26;;;;;;;10.27;9.27;;;;;18.50;101015.00;;;;2069820;28;20298;-53
2021/01/11 03:35:28;;;;;;;9.00;8.20;;;;;18.60;101008.00;;;;2069894;28;20219;-53
2021/01/11 03:36:29;;;;;;;9.65;8.73;;;;;18.60;101003.00;;;;2070727;28;20223;-54
2021/01/11 03:37:29;;;;;;;10.32;9.43;;;;;18.50;100999.00;;;;2070422;28;20235;-51
2021/01/11 03:38:30;;;;;;;11.33;8.97;;;;;18.50;101002.00;;;;2070501;28;20221;-53
2021/01/11 03:39:30;;;;;;;9.77;8.87;;;;;18.60;101006.00;;;;2070578;28;20213;-53
2021/01/11 03:40:30;;;;;;;9.90;9.00;;;;;18.50;100993.00;;;;2070509;28;20298;-53
2021/01/11 03:41:34;;;;;;;9.37;8.57;;;;;18.60;100999.00;;;;2070680;28;20208;-53
2021/01/11 03:42:37;;;;;;;9.80;9.00;;;;;18.50;101003.00;;;;2070490;28;20212;-53
2021/01/11 03:43:38;;;;;;;10.23;9.23;;;;;18.50;100998.00;;;;2061561;28;20771;-53
2021/01/11 03:44:39;;;;;;;10.65;9.65;;;;;18.50;100995.00;;;;2070841;28;20250;-53
2021/01/11 03:45:39;;;;;;;11.40;9.73;;;;;18.50;101006.00;;;;2072155;28;20216;-53
2021/01/11 03:46:39;;;;;;;9.83;9.03;;;;;18.50;101004.00;;;;2071915;28;20219;-53
2021/01/11 03:47:40;;;;;;;11.27;9.70;;;;;18.50;100999.00;;;;2071887;28;20211;-53
2021/01/11 03:48:40;;;;;;;9.60;8.80;;;;;18.50;101006.00;;;;2071669;28;20215;-52
2021/01/11 03:49:40;;;;;;;10.53;9.63;;;;;18.50;101014.00;;;;2071991;28;20214;-53
2021/01/11 03:50:41;;;;;;;10.83;9.87;;;;;18.50;101008.00;;;;2072051;28;20684;-53
2021/01/11 03:51:41;;;;;;;10.00;9.07;;;;;18.50;101013.00;;;;2072036;28;20211;-53
2021/01/11 03:52:41;;;;;;;10.67;9.77;;;;;18.50;101013.00;;;;2072094;28;20211;-54
2021/01/11 03:53:44;;;;;;;9.90;9.10;;;;;18.50;101014.00;;;;2072198;28;20234;-55
2021/01/11 03:54:44;;;;;;;9.93;9.07;;;;;18.50;101012.00;;;;2071577;28;21029;-53
2021/01/11 03:55:44;;;;;;;10.60;9.70;;;;;18.50;101008.00;;;;2072236;28;20298;-51
2021/01/11 03:56:45;;;;;;;11.23;10.30;;;;;18.50;101018.00;;;;2062763;28;20250;-52
2021/01/11 03:57:45;;;;;;;10.93;9.93;;;;;18.50;101006.00;;;;2072088;28;20231;-53
2021/01/11 03:58:45;;;;;;;11.43;10.50;;;;;18.50;101009.00;;;;2078333;28;20221;-53
2021/01/11 03:59:46;;;;;;;10.60;9.70;;;;;18.50;101003.00;;;;2071957;28;20224;-53
2021/01/11 04:00:49;;;;;;;11.10;10.10;;;;;18.50;101012.00;;;;2071770;28;20257;-53
2021/01/11 04:01:50;;;;;;;10.30;9.30;;;;;18.40;101019.00;;;;2071939;28;20321;-53
2021/01/11 04:02:50;;;;;;;12.00;11.00;;;;;18.50;101009.00;;;;2071903;28;20224;-53
2021/01/11 04:03:50;;;;;;;11.00;10.10;;;;;18.40;101014.00;;;;2071119;28;20296;-51
2021/01/11 04:04:51;;;;;;;11.67;10.67;;;;;18.40;101013.00;;;;2071236;28;20221;-52
2021/01/11 04:05:51;;;;;;;10.67;9.77;;;;;18.40;101006.00;;;;2070406;28;20215;-52
2021/01/11 04:06:54;;;;;;;12.33;11.23;;;;;18.50;101004.00;;;;2065520;28;20216;-51
2021/01/11 04:07:55;;;;;;;10.50;9.60;;;;;18.50;101003.00;;;;2071932;28;20221;-51
2021/01/11 04:08:55;;;;;;;12.20;11.10;;;;;18.50;101007.00;;;;2071835;28;20199;-53
2021/01/11 04:09:56;;;;;;;11.70;10.70;;;;;18.40;101013.00;;;;2072072;28;20266;-53
2021/01/11 04:10:56;;;;;;;11.80;10.70;;;;;18.40;101006.00;;;;2071690;28;20241;-53
2021/01/11 04:11:56;;;;;;;12.33;11.30;;;;;18.40;101011.00;;;;2071726;28;20225;-53
2021/01/11 04:12:57;;;;;;;12.43;11.40;;;;;18.40;101008.00;;;;2071906;28;20220;-53
2021/01/11 04:13:57;;;;;;;12.00;10.90;;;;;18.40;100998.00;;;;2072043;28;20726;-51
2021/01/11 04:14:57;;;;;;;11.23;10.30;;;;;18.50;101001.00;;;;2071170;28;20743;-52
2021/01/11 04:15:58;;;;;;;11.50;10.50;;;;;18.40;100999.00;;;;2071715;28;20643;-53
2021/01/11 04:16:58;;;;;;;12.07;11.00;;;;;18.40;100990.00;;;;2071776;28;20583;-53
2021/01/11 04:17:58;;;;;;;11.87;10.77;;;;;18.40;100988.00;;;;2071931;28;21634;-53
2021/01/11 04:18:59;;;;;;;12.17;11.07;;;;;18.40;100993.00;;;;2071504;28;20243;-51
2021/01/11 04:19:59;;;;;;;11.63;10.60;;;;;18.40;101012.00;;;;2069289;28;20700;-50
2021/01/11 04:20:59;;;;;;;11.90;10.80;;;;;18.40;101006.00;;;;2066476;28;20702;-51
2021/01/11 04:22:01;;;;;;;12.43;11.43;;;;;18.40;101008.00;;;;2071800;28;20581;-51
2021/01/11 04:23:01;;;;;;;12.25;11.15;;;;;18.40;101000.00;;;;2071705;28;20692;-50
2021/01/11 04:24:02;;;;;;;11.47;10.47;;;;;18.40;101002.00;;;;2071919;28;20235;-50
2021/01/11 04:25:03;;;;;;;12.30;11.20;;;;;18.40;100994.00;;;;2070448;28;20325;-52
2021/01/11 04:26:03;;;;;;;11.43;10.40;;;;;18.40;101005.00;;;;2071524;28;20237;-53
2021/01/11 04:27:04;;;;;;;12.33;11.23;;;;;18.40;100998.00;;;;2071528;28;20454;-52
2021/01/11 04:28:04;;;;;;;11.87;10.80;;;;;18.40;101018.00;;;;2071509;28;20642;-53
2021/01/11 04:29:05;;;;;;;11.37;10.37;;;;;18.40;101008.00;;;;2071781;28;20217;-53
2021/01/11 04:30:06;;;;;;;12.37;11.27;;;;;18.40;101008.00;;;;2071531;28;20214;-52
2021/01/11 04:31:06;;;;;;;10.77;9.77;;;;;18.40;101013.00;;;;2071377;28;20571;-51
2021/01/11 04:32:06;;;;;;;11.00;10.10;;;;;18.40;101007.00;;;;2071800;28;20219;-52
2021/01/11 04:33:07;;;;;;;11.87;10.87;;;;;18.40;101005.00;;;;2071641;28;20207;-53
2021/01/11 04:34:07;;;;;;;12.23;11.20;;;;;18.40;101010.00;;;;2071778;28;20765;-53
2021/01/11 04:35:08;;;;;;;13.03;11.77;;;;;18.40;101012.00;;;;2071018;28;20684;-53
2021/01/11 04:36:09;;;;;;;12.05;10.95;;;;;18.40;101010.00;;;;2071798;28;20235;-52
2021/01/11 04:37:10;;;;;;;11.90;10.80;;;;;18.20;101005.00;;;;2071448;28;20243;-53
2021/01/11 04:38:10;;;;;;;12.90;11.70;;;;;18.40;101014.00;;;;2071288;28;20303;-51
2021/01/11 04:39:10;;;;;;;12.77;11.67;;;;;18.40;101020.00;;;;2071381;28;20219;-53
2021/01/11 04:40:11;;;;;;;12.10;11.00;;;;;18.40;101028.00;;;;2071751;28;20269;-53
2021/01/11 04:41:11;;;;;;;12.13;11.03;;;;;18.30;101038.00;;;;2070256;28;20280;-58
2021/01/11 04:42:12;;;;;;;12.87;11.77;;;;;18.30;101028.00;;;;2069785;28;20222;-56
2021/01/11 04:43:16;;;;;;;13.00;11.80;;;;;18.30;101025.00;;;;2071556;28;20219;-51
2021/01/11 04:44:16;;;;;;;12.98;11.90;;;;;18.30;100970.00;;;;2071802;28;20218;-53
2021/01/11 04:45:17;;;;;;;12.17;11.17;;;;;18.30;101025.00;;;;2070208;28;20707;-51
2021/01/11 04:46:18;;;;;;;12.80;11.70;;;;;18.30;101020.00;;;;2071182;28;20679;-53
2021/01/11 04:47:18;;;;;;;12.10;11.10;;;;;18.20;101014.00;;;;2062647;28;20215;-52
2021/01/11 04:48:18;;;;;;;12.40;11.40;;;;;18.40;101018.00;;;;2062460;28;20250;-51
2021/01/11 04:49:19;;;;;;;13.27;11.87;;;;;18.30;101021.00;;;;2062592;28;20309;-53
2021/01/11 04:50:19;;;;;;;13.67;12.37;;;;;18.30;101017.00;;;;2060780;28;20212;-53
2021/01/11 04:51:19;;;;;;;12.33;11.23;;;;;18.30;101014.00;;;;2068095;28;20273;-50
2021/01/11 04:52:20;;;;;;;13.10;11.90;;;;;18.30;101026.00;;;;2071597;28;20790;-53
2021/01/11 04:53:21;;;;;;;12.83;11.73;;;;;18.30;101021.00;;;;2070923;28;20745;-53
2021/01/11 04:54:21;;;;;;;12.20;11.17;;;;;18.30;101004.00;;;;2071277;28;20203;-52
2021/01/11 04:55:22;;;;;;;12.73;11.60;;;;;18.30;101023.00;;;;2063991;28;20227;-53
2021/01/11 04:56:23;;;;;;;12.57;11.50;;;;;18.30;101012.00;;;;2068205;28;20218;-51
2021/01/11 04:57:23;;;;;;;12.13;10.90;;;;;18.30;101012.00;;;;2070746;28;20218;-52
2021/01/11 04:58:23;;;;;;;13.87;12.67;;;;;18.30;101011.00;;;;2062741;28;20215;-53
2021/01/11 04:59:24;;;;;;;12.83;11.73;;;;;18.30;101016.00;;;;2054234;28;20220;-53
2021/01/11 05:00:26;;;;;;;12.80;11.80;;;;;18.30;101015.00;;;;2054677;28;20252;-53
2021/01/11 05:01:28;;;;;;;12.73;11.52;;;;;18.30;101016.00;;;;2056620;28;20682;-53
2021/01/11 05:02:29;;;;;;;12.60;11.50;;;;;18.30;101006.00;;;;2070096;28;20679;-53